Time;durP1;ratioP1;P1;durP2;ratioP2;P2;SDS_P1;SDS_P2;PMS_P1;PMS_P2;Temp;Humidity;BMP_temperature;BMP_pressure;BME280_temperature;BME280_humidity;BME280_pressure;Samples;Min_cycle;Max_cycle;Signal;HPM_P1;HPM_P2
2022/04/23 00:00:22;;;;;;;;;;;11.70;99.90;;;;;;5075653;28;19928;-70
2022/04/23 00:02:49;;;;;;;;;;;11.70;99.90;;;;;;5075879;28;19925;-71
2022/04/23 00:05:14;;;;;;;;;;;11.70;99.90;;;;;;5075310;28;19932;-70
2022/04/23 00:07:40;;;;;;;;;;;11.80;99.90;;;;;;5075712;28;19925;-72
2022/04/23 00:10:06;;;;;;;;;;;11.60;99.90;;;;;;5074333;28;19931;-69
2022/04/23 00:12:31;;;;;;;;;;;11.60;99.90;;;;;;5075588;28;19925;-70
2022/04/23 00:14:57;;;;;;;;;;;11.50;99.90;;;;;;5075345;28;20268;-70
2022/04/23 00:17:22;;;;;;;;;;;11.50;99.90;;;;;;5075285;28;19950;-71
2022/04/23 00:19:48;;;;;;;;;;;11.50;99.90;;;;;;5075488;28;19924;-71
2022/04/23 00:22:15;;;;;;;;;;;11.50;99.90;;;;;;5074438;28;20375;-71
2022/04/23 00:24:41;;;;;;;;;;;12.00;99.90;;;;;;5075264;28;19968;-71
2022/04/23 00:27:07;;;;;;;;;;;11.40;99.90;;;;;;5075250;28;19924;-69
2022/04/23 00:29:32;;;;;;;;;;;11.40;99.90;;;;;;5075190;28;19929;-71
2022/04/23 00:31:58;;;;;;;;;;;11.30;99.90;;;;;;5075102;28;20016;-70
2022/04/23 00:34:25;;;;;;;;;;;11.30;99.90;;;;;;5075079;28;19931;-70
2022/04/23 00:36:51;;;;;;;;;;;11.20;99.90;;;;;;5057567;28;20376;-71
2022/04/23 00:39:16;;;;;;;;;;;11.20;99.90;;;;;;5057337;28;19924;-71
2022/04/23 00:41:48;;;;;;;;;;;11.20;99.90;;;;;;5074954;28;19928;-70
2022/04/23 00:44:14;;;;;;;;;;;11.10;99.90;;;;;;5074846;28;19925;-69
2022/04/23 00:46:40;;;;;;;;;;;11.00;99.90;;;;;;5073667;28;19931;-72
2022/04/23 00:49:06;;;;;;;;;;;11.00;99.90;;;;;;5074987;28;20295;-71
2022/04/23 00:51:35;;;;;;;;;;;11.00;99.90;;;;;;5073949;28;20445;-70
2022/04/23 00:54:04;;;;;;;;;;;10.90;99.90;;;;;;5057044;28;19924;-72
2022/04/23 00:56:30;;;;;;;;;;;11.30;99.90;;;;;;5074503;28;19925;-70
2022/04/23 00:58:56;;;;;;;;;;;10.80;99.90;;;;;;5074549;28;19931;-70
2022/04/23 01:01:23;;;;;;;;;;;9.70;99.90;;;;;;5074499;28;19924;-70
2022/04/23 01:03:49;;;;;;;;;;;10.80;99.90;;;;;;5074678;28;19924;-69
2022/04/23 01:06:15;;;;;;;;;;;11.00;99.90;;;;;;5074512;28;19994;-70
2022/04/23 01:08:41;;;;;;;;;;;10.70;99.90;;;;;;5074575;28;20391;-72
2022/04/23 01:11:07;;;;;;;;;;;10.60;99.90;;;;;;5074142;28;20015;-71
2022/04/23 01:13:32;;;;;;;;;;;10.60;99.90;;;;;;5074369;28;19935;-71
2022/04/23 01:15:59;;;;;;;;;;;10.50;99.90;;;;;;5071931;28;20391;-71
2022/04/23 01:18:24;;;;;;;;;;;10.50;99.90;;;;;;5074348;28;20390;-71
2022/04/23 01:20:51;;;;;;;;;;;10.40;99.90;;;;;;5056811;28;19924;-70
2022/04/23 01:23:17;;;;;;;;;;;10.40;99.90;;;;;;5074248;28;19968;-71
2022/04/23 01:25:42;;;;;;;;;;;10.40;99.90;;;;;;5074109;28;19936;-71
2022/04/23 01:28:08;;;;;;;;;;;10.30;99.90;;;;;;5074142;28;19963;-70
2022/04/23 01:30:33;;;;;;;;;;;10.20;99.90;;;;;;5074013;28;19924;-69
2022/04/23 01:32:59;;;;;;;;;;;10.20;99.90;;;;;;5073919;28;19924;-71
2022/04/23 01:35:25;;;;;;;;;;;10.10;99.90;;;;;;5072805;28;19931;-71
2022/04/23 01:37:50;;;;;;;;;;;10.10;99.90;;;;;;5073134;28;20054;-70
2022/04/23 01:40:16;;;;;;;;;;;10.40;99.90;;;;;;5073921;28;19931;-69
2022/04/23 01:42:42;;;;;;;;;;;10.10;99.90;;;;;;5073023;28;19925;-72
2022/04/23 01:45:08;;;;;;;;;;;10.10;99.90;;;;;;5073821;28;19928;-72
2022/04/23 01:47:33;;;;;;;;;;;10.00;99.90;;;;;;5073733;28;19924;-70
2022/04/23 01:49:59;;;;;;;;;;;10.50;99.90;;;;;;5073972;28;19947;-69
2022/04/23 01:52:25;;;;;;;;;;;8.70;99.90;;;;;;5074112;28;19925;-71
2022/04/23 01:54:50;;;;;;;;;;;10.00;99.90;;;;;;5072014;28;19924;-71
2022/04/23 01:57:16;;;;;;;;;;;10.00;99.90;;;;;;5072593;28;19925;-71
2022/04/23 01:59:41;;;;;;;;;;;9.90;99.90;;;;;;5072649;28;20272;-71
2022/04/23 02:02:07;;;;;;;;;;;9.90;99.90;;;;;;5073532;28;19928;-71
2022/04/23 02:04:32;;;;;;;;;;;9.90;99.90;;;;;;5073801;28;19935;-70
2022/04/23 02:06:58;;;;;;;;;;;10.20;99.90;;;;;;5073860;28;19928;-70
2022/04/23 02:09:23;;;;;;;;;;;9.90;99.90;;;;;;5073864;28;20007;-70
2022/04/23 02:11:49;;;;;;;;;;;9.90;99.90;;;;;;5073521;28;19925;-69
2022/04/23 02:14:15;;;;;;;;;;;9.80;99.90;;;;;;5073484;28;20021;-69
2022/04/23 02:16:40;;;;;;;;;;;9.80;99.90;;;;;;5073493;28;19967;-70
2022/04/23 02:19:06;;;;;;;;;;;9.80;99.90;;;;;;5073431;28;19967;-69
2022/04/23 02:21:31;;;;;;;;;;;9.70;99.90;;;;;;5073674;28;19925;-69
2022/04/23 02:23:57;;;;;;;;;;;9.70;99.90;;;;;;5072345;28;19928;-69
2022/04/23 02:26:22;;;;;;;;;;;9.80;99.90;;;;;;5072544;28;19928;-71
2022/04/23 02:28:48;;;;;;;;;;;9.70;99.90;;;;;;5077156;28;19924;-72
2022/04/23 02:31:14;;;;;;;;;;;9.60;99.90;;;;;;5077466;28;19970;-70
2022/04/23 02:33:40;;;;;;;;;;;9.70;99.90;;;;;;5077369;28;19924;-72
2022/04/23 02:36:06;;;;;;;;;;;10.30;99.90;;;;;;5075904;28;19928;-70
2022/04/23 02:38:32;;;;;;;;;;;9.80;99.90;;;;;;5077429;28;19985;-70
2022/04/23 02:40:58;;;;;;;;;;;9.60;99.90;;;;;;5077361;28;20387;-71
2022/04/23 02:43:23;;;;;;;;;;;9.60;99.90;;;;;;5077192;28;19925;-71
2022/04/23 02:45:49;;;;;;;;;;;10.40;99.90;;;;;;5110206;28;20014;-70
2022/04/23 02:48:14;;;;;;;;;;;9.60;99.90;;;;;;5076219;28;20005;-70
2022/04/23 02:50:40;;;;;;;;;;;9.50;99.90;;;;;;5075867;28;19925;-71
2022/04/23 02:53:06;;;;;;;;;;;10.00;99.90;;;;;;5076172;28;19924;-70
2022/04/23 02:55:32;;;;;;;;;;;9.50;99.90;;;;;;5075745;28;19931;-72
2022/04/23 02:58:02;;;;;;;;;;;9.50;99.90;;;;;;5076900;28;19971;-70
2022/04/23 03:00:28;;;;;;;;;;;9.40;99.90;;;;;;5075919;28;19924;-71
2022/04/23 03:02:54;;;;;;;;;;;9.40;99.90;;;;;;5076881;28;20306;-70
2022/04/23 03:05:20;;;;;;;;;;;9.50;99.90;;;;;;5076733;28;19924;-71
2022/04/23 03:07:47;;;;;;;;;;;9.50;99.90;;;;;;5075874;28;20372;-70
2022/04/23 03:10:13;;;;;;;;;;;9.40;99.90;;;;;;5076692;28;19951;-71
2022/04/23 03:12:39;;;;;;;;;;;9.40;99.90;;;;;;5076686;28;20015;-71
2022/04/23 03:15:06;;;;;;;;;;;9.40;99.90;;;;;;5076550;28;20022;-69
2022/04/23 03:17:31;;;;;;;;;;;9.30;99.90;;;;;;5076612;28;19986;-69
2022/04/23 03:19:57;;;;;;;;;;;9.50;99.90;;;;;;5076396;28;19928;-70
2022/04/23 03:22:23;;;;;;;;;;;9.30;99.90;;;;;;5076585;28;19931;-72
2022/04/23 03:24:48;;;;;;;;;;;9.30;99.90;;;;;;5075157;28;19925;-70
2022/04/23 03:27:14;;;;;;;;;;;10.20;99.90;;;;;;5075443;28;19925;-72
2022/04/23 03:29:40;;;;;;;;;;;9.20;99.90;;;;;;5076387;28;19924;-69
2022/04/23 03:32:06;;;;;;;;;;;9.20;99.90;;;;;;5074899;28;19973;-68
2022/04/23 03:34:31;;;;;;;;;;;9.10;99.90;;;;;;5076065;28;19932;-70
2022/04/23 03:36:57;;;;;;;;;;;9.10;99.90;;;;;;5076462;28;19928;-71
2022/04/23 03:39:23;;;;;;;;;;;9.10;99.90;;;;;;5074475;28;20413;-71
2022/04/23 03:41:48;;;;;;;;;;;9.40;99.90;;;;;;5076236;28;19924;-70
2022/04/23 03:44:14;;;;;;;;;;;9.10;99.90;;;;;;5074932;28;19931;-70
2022/04/23 03:46:40;;;;;;;;;;;9.10;99.90;;;;;;5074838;28;19931;-70
2022/04/23 03:49:07;;;;;;;;;;;9.00;99.90;;;;;;5075991;28;19938;-69
2022/04/23 03:51:33;;;;;;;;;;;9.10;99.90;;;;;;5074859;28;20457;-70
2022/04/23 03:53:59;;;;;;;;;;;9.00;99.90;;;;;;5041688;28;19925;-70
2022/04/23 03:56:25;;;;;;;;;;;9.80;99.90;;;;;;5075546;28;19924;-70
2022/04/23 03:58:51;;;;;;;;;;;9.00;99.90;;;;;;5075772;28;19925;-71
2022/04/23 04:01:17;;;;;;;;;;;9.90;99.90;;;;;;5075741;28;19925;-69
2022/04/23 04:03:43;;;;;;;;;;;9.00;99.90;;;;;;5075692;28;19982;-71
2022/04/23 04:06:09;;;;;;;;;;;9.30;99.90;;;;;;5074523;28;19925;-70
2022/04/23 04:08:35;;;;;;;;;;;9.00;99.90;;;;;;5074482;28;19924;-71
2022/04/23 04:11:00;;;;;;;;;;;9.20;99.90;;;;;;5074529;28;19929;-71
2022/04/23 04:13:26;;;;;;;;;;;8.90;99.90;;;;;;5074731;28;19925;-70
2022/04/23 04:15:52;;;;;;;;;;;8.90;99.90;;;;;;5074260;28;19924;-69
2022/04/23 04:18:17;;;;;;;;;;;8.90;99.90;;;;;;5074549;28;20066;-71
2022/04/23 04:20:46;;;;;;;;;;;8.90;99.90;;;;;;5075280;28;20303;-69
2022/04/23 04:23:13;;;;;;;;;;;8.80;99.90;;;;;;5074418;28;19924;-70
2022/04/23 04:25:38;;;;;;;;;;;8.80;99.90;;;;;;5074463;28;20022;-68
2022/04/23 04:28:04;;;;;;;;;;;8.70;99.90;;;;;;5075422;28;19967;-70
2022/04/23 04:31:46;;;;;;;;;;;8.80;99.90;;;;;;5075318;28;19924;-70
2022/04/23 04:33:16;;;;;;;;;;;8.70;99.90;;;;;;5075054;28;19978;-69
2022/04/23 04:35:41;;;;;;;;;;;8.70;99.90;;;;;;5074967;28;19999;-70
2022/04/23 04:38:07;;;;;;;;;;;8.60;99.90;;;;;;5075298;28;19954;-70
2022/04/23 04:40:32;;;;;;;;;;;8.80;99.90;;;;;;5073882;28;19928;-70
2022/04/23 04:42:58;;;;;;;;;;;9.70;99.90;;;;;;5075042;28;19971;-72
2022/04/23 04:45:23;;;;;;;;;;;8.60;99.90;;;;;;5074884;28;19925;-71
2022/04/23 04:47:49;;;;;;;;;;;8.60;99.90;;;;;;5074751;28;19931;-69
2022/04/23 04:50:15;;;;;;;;;;;8.80;99.90;;;;;;5074750;28;20015;-71
2022/04/23 04:52:40;;;;;;;;;;;9.10;99.90;;;;;;5074768;28;20015;-71
2022/04/23 04:55:06;;;;;;;;;;;8.60;99.90;;;;;;5073386;28;19924;-69
2022/04/23 04:57:32;;;;;;;;;;;8.60;99.90;;;;;;5074718;28;19946;-69
2022/04/23 04:59:57;;;;;;;;;;;9.50;99.90;;;;;;5074552;28;19928;-70
2022/04/23 05:02:24;;;;;;;;;;;8.60;99.90;;;;;;5074623;28;19924;-69
2022/04/23 05:04:50;;;;;;;;;;;8.60;99.90;;;;;;5073499;28;20351;-71
2022/04/23 05:07:15;;;;;;;;;;;8.60;99.90;;;;;;5074350;28;19968;-71
2022/04/23 05:09:41;;;;;;;;;;;9.10;99.90;;;;;;5074521;28;19925;-70
2022/04/23 05:12:07;;;;;;;;;;;8.60;99.90;;;;;;5073575;28;19947;-71
2022/04/23 05:14:32;;;;;;;;;;;8.60;99.90;;;;;;5073407;28;19935;-69
2022/04/23 05:16:58;;;;;;;;;;;8.60;99.90;;;;;;5074295;28;19951;-69
2022/04/23 05:19:23;;;;;;;;;;;9.00;99.90;;;;;;5074195;28;19924;-71
2022/04/23 05:21:50;;;;;;;;;;;8.70;99.90;;;;;;5074057;28;19928;-70
2022/04/23 05:24:15;;;;;;;;;;;8.80;99.90;;;;;;5072812;28;19924;-70
2022/04/23 05:26:41;;;;;;;;;;;8.60;99.90;;;;;;5074277;28;19932;-70
2022/04/23 05:29:06;;;;;;;;;;;9.00;99.90;;;;;;5074110;28;19924;-72
2022/04/23 05:31:32;;;;;;;;;;;8.70;99.90;;;;;;5074130;28;19929;-69
2022/04/23 05:33:58;;;;;;;;;;;9.60;99.90;;;;;;5073893;28;19935;-69
2022/04/23 05:36:23;;;;;;;;;;;8.70;99.90;;;;;;5073891;28;19924;-68
2022/04/23 05:38:49;;;;;;;;;;;8.70;99.90;;;;;;5073825;28;20367;-70
2022/04/23 05:41:14;;;;;;;;;;;8.70;99.90;;;;;;5074208;28;19972;-69
2022/04/23 05:43:41;;;;;;;;;;;9.00;99.90;;;;;;5073981;28;19924;-70
2022/04/23 05:46:07;;;;;;;;;;;8.80;99.90;;;;;;5056106;28;19974;-68
2022/04/23 05:48:34;;;;;;;;;;;9.20;99.90;;;;;;5073815;28;19928;-69
2022/04/23 05:51:00;;;;;;;;;;;8.80;99.90;;;;;;5073793;28;20338;-72
2022/04/23 05:53:26;;;;;;;;;;;8.90;99.90;;;;;;5072303;28;19924;-70
2022/04/23 05:55:53;;;;;;;;;;;9.20;99.90;;;;;;5072287;28;19932;-69
2022/04/23 05:58:19;;;;;;;;;;;9.00;99.90;;;;;;5072826;28;19924;-71
2022/04/23 06:00:44;;;;;;;;;;;9.00;99.90;;;;;;5072762;28;19931;-70
2022/04/23 06:03:11;;;;;;;;;;;9.00;99.90;;;;;;5073239;28;19925;-70
2022/04/23 06:05:36;;;;;;;;;;;9.60;99.90;;;;;;5073663;28;19939;-68
2022/04/23 06:08:02;;;;;;;;;;;9.10;99.90;;;;;;5072448;28;19924;-69
2022/04/23 06:10:27;;;;;;;;;;;9.20;99.90;;;;;;5073694;28;19925;-70
2022/04/23 06:12:53;;;;;;;;;;;9.20;99.90;;;;;;5073698;28;20464;-69
2022/04/23 06:15:18;;;;;;;;;;;9.90;99.90;;;;;;5073532;28;19980;-71
2022/04/23 06:17:45;;;;;;;;;;;9.30;99.90;;;;;;5073562;28;19931;-70
2022/04/23 06:20:11;;;;;;;;;;;9.60;99.90;;;;;;5072494;28;19925;-71
2022/04/23 06:22:37;;;;;;;;;;;9.40;99.90;;;;;;5072151;28;19931;-71
2022/04/23 06:25:02;;;;;;;;;;;9.50;99.90;;;;;;5073449;28;19929;-70
2022/04/23 06:27:30;;;;;;;;;;;9.60;99.90;;;;;;5073628;28;19931;-69
2022/04/23 06:29:55;;;;;;;;;;;9.60;99.90;;;;;;5073535;28;19924;-70
2022/04/23 06:32:21;;;;;;;;;;;9.70;99.90;;;;;;5073525;28;19931;-70
2022/04/23 06:34:47;;;;;;;;;;;9.70;99.90;;;;;;5072341;28;19924;-69
2022/04/23 06:37:12;;;;;;;;;;;10.10;99.90;;;;;;5073251;28;19928;-72
2022/04/23 06:39:38;;;;;;;;;;;9.90;99.90;;;;;;5073124;28;19970;-71
2022/04/23 06:42:04;;;;;;;;;;;10.00;99.90;;;;;;5073499;28;20062;-71
2022/04/23 06:44:29;;;;;;;;;;;10.10;99.90;;;;;;5072461;28;20372;-71
2022/04/23 06:46:55;;;;;;;;;;;10.20;99.90;;;;;;5072323;28;19925;-70
2022/04/23 06:49:20;;;;;;;;;;;10.20;99.90;;;;;;5071219;28;19974;-70
2022/04/23 06:51:46;;;;;;;;;;;10.30;99.90;;;;;;5072804;28;19931;-71
2022/04/23 06:54:11;;;;;;;;;;;10.30;99.90;;;;;;5073182;28;19932;-72
2022/04/23 06:56:38;;;;;;;;;;;11.20;99.90;;;;;;5071501;28;19931;-70
2022/04/23 06:59:04;;;;;;;;;;;10.60;99.90;;;;;;5073150;28;20041;-71
2022/04/23 07:01:29;;;;;;;;;;;10.70;99.90;;;;;;5072166;28;19975;-69
2022/04/23 07:03:55;;;;;;;;;;;10.00;99.90;;;;;;5073066;28;19928;-71
2022/04/23 07:06:21;;;;;;;;;;;10.90;99.90;;;;;;5072632;28;19924;-72
2022/04/23 07:08:46;;;;;;;;;;;10.90;99.90;;;;;;5071882;28;19924;-71
2022/04/23 07:11:12;;;;;;;;;;;11.00;99.90;;;;;;5072807;28;20410;-70
2022/04/23 07:13:38;;;;;;;;;;;11.10;99.90;;;;;;5073041;28;19947;-71
2022/04/23 07:16:04;;;;;;;;;;;11.20;99.90;;;;;;5076539;28;20287;-69
2022/04/23 07:18:31;;;;;;;;;;;11.20;99.90;;;;;;5076598;28;20384;-69
2022/04/23 07:20:56;;;;;;;;;;;11.20;99.90;;;;;;5076321;28;19925;-71
2022/04/23 07:26:14;;;;;;;;;;;11.40;99.90;;;;;;5074027;28;19981;-71
2022/04/23 07:28:40;;;;;;;;;;;11.50;99.90;;;;;;5074166;28;20405;-70
2022/04/23 07:31:05;;;;;;;;;;;11.60;99.90;;;;;;5074127;28;19925;-69
2022/04/23 07:39:03;;;;;;;;;;;11.80;99.90;;;;;;5073996;28;20365;-71
2022/04/23 07:41:28;;;;;;;;;;;12.20;99.90;;;;;;5057322;28;19924;-69
2022/04/23 07:43:54;;;;;;;;;;;12.00;99.90;;;;;;5073907;28;19925;-69
2022/04/23 07:46:20;;;;;;;;;;;12.40;99.90;;;;;;5073834;28;19930;-71
2022/04/23 07:48:46;;;;;;;;;;;12.10;99.90;;;;;;5073835;28;19983;-71
2022/04/23 07:51:11;;;;;;;;;;;12.50;99.90;;;;;;5073517;28;19992;-71
2022/04/23 07:53:37;;;;;;;;;;;12.30;99.90;;;;;;5073626;28;19931;-72
2022/04/23 07:56:03;;;;;;;;;;;12.30;99.90;;;;;;5073282;28;20415;-69
2022/04/23 07:58:29;;;;;;;;;;;12.40;99.90;;;;;;5073608;28;19968;-71
2022/04/23 08:00:54;;;;;;;;;;;12.40;99.90;;;;;;5073608;28;20017;-71
2022/04/23 08:03:20;;;;;;;;;;;12.50;99.90;;;;;;5074710;28;20062;-71
2022/04/23 08:05:46;;;;;;;;;;;12.60;99.90;;;;;;5075969;28;19931;-72
2022/04/23 08:08:11;;;;;;;;;;;12.60;99.90;;;;;;5074119;28;19931;-71
2022/04/23 08:10:37;;;;;;;;;;;12.60;99.90;;;;;;5075604;28;20011;-71
2022/04/23 08:13:03;;;;;;;;;;;13.90;99.90;;;;;;5075527;28;19928;-71
2022/04/23 08:15:29;;;;;;;;;;;12.80;99.90;;;;;;5074516;28;19967;-72
2022/04/23 08:17:54;;;;;;;;;;;12.80;99.90;;;;;;5075209;28;19924;-72
2022/04/23 08:20:20;;;;;;;;;;;12.90;99.90;;;;;;5075069;28;20454;-71
2022/04/23 08:22:46;;;;;;;;;;;12.90;99.90;;;;;;5075177;28;20299;-71
2022/04/23 08:25:11;;;;;;;;;;;13.00;99.90;;;;;;5074835;28;20023;-71
2022/04/23 08:27:49;;;;;;;;;;;13.00;99.90;;;;;;5074094;28;20015;-70
2022/04/23 08:32:59;;;;;;;;;;;13.20;99.90;;;;;;5075017;28;19931;-71
2022/04/23 08:35:24;;;;;;;;;;;13.20;99.90;;;;;;5074023;28;19925;-71
2022/04/23 08:37:50;;;;;;;;;;;13.30;99.90;;;;;;5075081;28;19924;-70
2022/04/23 08:40:16;;;;;;;;;;;13.50;99.90;;;;;;5074891;28;19924;-70
2022/04/23 08:42:41;;;;;;;;;;;13.50;99.90;;;;;;5075030;28;20272;-71
2022/04/23 08:45:07;;;;;;;;;;;13.50;98.60;;;;;;5074836;28;20077;-71
2022/04/23 08:47:36;;;;;;;;;;;13.50;99.90;;;;;;5072789;28;20347;-72
2022/04/23 08:50:04;;;;;;;;;;;13.60;99.90;;;;;;5055912;28;19925;-70
2022/04/23 08:52:32;;;;;;;;;;;13.60;99.20;;;;;;5054029;28;19931;-71
2022/04/23 08:55:18;;;;;;;;;;;13.60;99.90;;;;;;5054391;28;19981;-71
2022/04/23 08:57:44;;;;;;;;;;;13.60;98.60;;;;;;5054288;28;19932;-71
2022/04/23 09:00:11;;;;;;;;;;;13.70;99.90;;;;;;5053601;28;19933;-72
2022/04/23 09:02:37;;;;;;;;;;;13.70;97.80;;;;;;5037094;28;20380;-71
2022/04/23 09:05:02;;;;;;;;;;;13.80;99.00;;;;;;5054732;28;19975;-71
2022/04/23 09:07:29;;;;;;;;;;;13.80;96.30;;;;;;5054617;28;19924;-72
2022/04/23 09:09:55;;;;;;;;;;;13.80;93.20;;;;;;5053348;28;20372;-71
2022/04/23 09:12:24;;;;;;;;;;;13.80;95.90;;;;;;5054276;28;20023;-69
2022/04/23 09:14:50;;;;;;;;;;;14.00;96.50;;;;;;5086954;28;19925;-71
2022/04/23 09:23:39;;;;;;;;;;;13.90;94.10;;;;;;5054254;28;19925;-70
2022/04/23 09:25:41;;;;;;;;;;;14.10;90.50;;;;;;5054281;28;20288;-71
2022/04/23 09:28:16;;;;;;;;;;;14.10;95.90;;;;;;5054219;28;20012;-71
2022/04/23 09:30:42;;;;;;;;;;;13.20;98.30;;;;;;5054205;28;20386;-70
2022/04/23 09:33:08;;;;;;;;;;;14.30;98.80;;;;;;5054011;28;19979;-70
2022/04/23 09:35:33;;;;;;;;;;;14.40;90.40;;;;;;5053875;28;19925;-69
2022/04/23 09:38:20;;;;;;;;;;;14.50;90.30;;;;;;5053178;28;19924;-71
2022/04/23 09:41:16;;;;;;;;;;;14.60;90.20;;;;;;5053052;28;19925;-71
2022/04/23 09:43:45;;;;;;;;;;;14.70;84.90;;;;;;5053949;28;20294;-78
2022/04/23 09:46:11;;;;;;;;;;;14.80;80.90;;;;;;5053813;28;19924;-75
2022/04/23 09:48:43;;;;;;;;;;;14.90;85.20;;;;;;5053736;28;19928;-75
2022/04/23 09:51:24;;;;;;;;;;;15.00;81.50;;;;;;5053761;28;19925;-74
2022/04/23 09:53:53;;;;;;;;;;;15.10;84.10;;;;;;5053715;28;20280;-77
2022/04/23 09:56:20;;;;;;;;;;;15.20;80.70;;;;;;5053382;28;19935;-75
2022/04/23 09:58:47;;;;;;;;;;;15.20;77.80;;;;;;5085553;28;20318;-75
2022/04/23 10:01:16;;;;;;;;;;;15.30;73.30;;;;;;5053485;28;20157;-78
2022/04/23 10:03:45;;;;;;;;;;;15.40;75.90;;;;;;5053774;28;20265;-75
2022/04/23 10:06:14;;;;;;;;;;;15.50;78.10;;;;;;5053745;28;19932;-76
2022/04/23 10:08:42;;;;;;;;;;;15.50;82.20;;;;;;5053582;28;19931;-77
2022/04/23 10:11:19;;;;;;;;;;;15.70;77.30;;;;;;5050777;28;19933;-77
2022/04/23 10:13:48;;;;;;;;;;;15.70;71.30;;;;;;5086237;28;19932;-75
2022/04/23 10:16:17;;;;;;;;;;;16.20;69.90;;;;;;5052198;28;20307;-74
2022/04/23 10:18:43;;;;;;;;;;;15.80;70.70;;;;;;5053647;28;19924;-75
2022/04/23 10:21:09;;;;;;;;;;;15.90;64.30;;;;;;5053479;28;19932;-76
2022/04/23 10:23:50;;;;;;;;;;;15.90;67.10;;;;;;5053595;28;19932;-74
2022/04/23 10:26:35;;;;;;;;;;;15.90;63.80;;;;;;5053270;28;19925;-75
2022/04/23 10:29:01;;;;;;;;;;;16.00;66.00;;;;;;5053528;28;20020;-71
2022/04/23 10:31:27;;;;;;;;;;;16.00;64.40;;;;;;5053205;28;19925;-71
2022/04/23 10:33:53;;;;;;;;;;;16.20;65.10;;;;;;5053350;28;20385;-72
2022/04/23 10:36:19;;;;;;;;;;;16.30;62.90;;;;;;5053221;28;19924;-73
2022/04/23 10:38:51;;;;;;;;;;;16.30;63.80;;;;;;5053204;28;20273;-71
2022/04/23 10:41:18;;;;;;;;;;;16.40;59.80;;;;;;5053332;28;19931;-71
2022/04/23 10:43:47;;;;;;;;;;;16.30;58.30;;;;;;5053340;28;19935;-71
2022/04/23 10:46:31;;;;;;;;;;;16.30;60.10;;;;;;5053300;28;19928;-71
2022/04/23 10:49:13;;;;;;;;;;;16.30;61.00;;;;;;5055284;28;20421;-71
2022/04/23 10:51:46;;;;;;;;;;;16.40;59.00;;;;;;5056982;28;19982;-73
2022/04/23 10:54:11;;;;;;;;;;;16.40;59.00;;;;;;5057136;28;19925;-71
2022/04/23 10:56:37;;;;;;;;;;;16.50;59.40;;;;;;5055418;28;19924;-70
2022/04/23 10:59:03;;;;;;;;;;;16.60;60.00;;;;;;5056980;28;20403;-71
2022/04/23 11:01:30;;;;;;;;;;;16.70;60.30;;;;;;5056891;28;19931;-71
2022/04/23 11:03:58;;;;;;;;;;;16.70;57.40;;;;;;5056769;28;20402;-71
2022/04/23 11:12:37;;;;;;;;;;;16.80;58.20;;;;;;5055101;28;19925;-72
2022/04/23 11:15:14;;;;;;;;;;;16.90;56.10;;;;;;5086153;28;19936;-71
2022/04/23 11:17:40;;;;;;;;;;;17.00;55.90;;;;;;5056694;28;20289;-73
2022/04/23 11:20:06;;;;;;;;;;;16.90;55.60;;;;;;5056390;28;20272;-74
2022/04/23 11:22:32;;;;;;;;;;;16.90;57.20;;;;;;5056497;28;19924;-71
2022/04/23 11:24:58;;;;;;;;;;;16.90;55.70;;;;;;5038906;28;20024;-71
2022/04/23 11:27:28;;;;;;;;;;;16.90;56.50;;;;;;5056675;28;20070;-73
2022/04/23 11:29:54;;;;;;;;;;;17.00;57.60;;;;;;5056488;28;19936;-71
2022/04/23 11:32:26;;;;;;;;;;;17.00;57.50;;;;;;5054431;28;19925;-71
2022/04/23 11:34:58;;;;;;;;;;;17.10;53.80;;;;;;5056309;28;19929;-69
2022/04/23 11:37:31;;;;;;;;;;;17.00;55.20;;;;;;5056259;28;20015;-71
2022/04/23 11:40:07;;;;;;;;;;;17.10;55.60;;;;;;5088979;28;20432;-73
2022/04/23 11:42:41;;;;;;;;;;;17.10;53.50;;;;;;5056308;28;19931;-72
2022/04/23 11:45:08;;;;;;;;;;;17.10;51.60;;;;;;5056048;28;20063;-73
2022/04/23 11:47:36;;;;;;;;;;;17.00;54.00;;;;;;5088696;28;19929;-70
2022/04/23 11:50:08;;;;;;;;;;;17.00;52.40;;;;;;5088747;28;19925;-72
2022/04/23 11:52:33;;;;;;;;;;;16.90;52.40;;;;;;5088598;28;19928;-71
2022/04/23 11:55:00;;;;;;;;;;;16.90;51.70;;;;;;5056095;28;19925;-71
2022/04/23 11:57:26;;;;;;;;;;;16.90;52.80;;;;;;5055563;28;19924;-71
2022/04/23 11:59:51;;;;;;;;;;;16.90;51.70;;;;;;5055120;28;19931;-71
2022/04/23 12:02:18;;;;;;;;;;;16.80;51.10;;;;;;5088486;28;20372;-72
2022/04/23 12:04:44;;;;;;;;;;;16.80;52.00;;;;;;5071532;28;19935;-72
2022/04/23 12:07:10;;;;;;;;;;;16.90;51.40;;;;;;5055514;28;20019;-73
2022/04/23 12:09:50;;;;;;;;;;;16.90;51.60;;;;;;5055854;28;19932;-71
2022/04/23 12:12:22;;;;;;;;;;;17.00;51.40;;;;;;5055608;28;19925;-70
2022/04/23 12:14:55;;;;;;;;;;;17.10;54.00;;;;;;5055457;28;19925;-71
2022/04/23 12:17:26;;;;;;;;;;;17.20;51.20;;;;;;5055457;28;19925;-72
2022/04/23 12:20:00;;;;;;;;;;;17.20;49.70;;;;;;5055546;28;19987;-72
2022/04/23 12:22:27;;;;;;;;;;;17.20;51.30;;;;;;5054383;28;19932;-71
2022/04/23 12:25:08;;;;;;;;;;;17.20;51.60;;;;;;5088167;28;19924;-71
2022/04/23 12:27:51;;;;;;;;;;;17.20;49.80;;;;;;5055291;28;19978;-70
2022/04/23 12:41:24;;;;;;;;;;;17.40;49.70;;;;;;5032685;28;20423;-72
2022/04/23 12:43:52;;;;;;;;;;;17.40;51.10;;;;;;5032887;28;19925;-72
2022/04/23 12:46:17;;;;;;;;;;;17.40;50.10;;;;;;5032768;28;20052;-72
2022/04/23 12:48:59;;;;;;;;;;;17.40;49.30;;;;;;5032784;28;20020;-70
2022/04/23 12:51:25;;;;;;;;;;;17.30;49.90;;;;;;5032730;28;19984;-73
2022/04/23 12:53:50;;;;;;;;;;;17.30;49.90;;;;;;5032451;28;20428;-70
2022/04/23 12:56:16;;;;;;;;;;;17.30;49.80;;;;;;5015831;28;20059;-71
2022/04/23 12:58:42;;;;;;;;;;;17.30;52.20;;;;;;5032633;28;19932;-73
2022/04/23 13:01:08;;;;;;;;;;;17.40;50.00;;;;;;5032433;28;20027;-71
2022/04/23 13:03:35;;;;;;;;;;;17.30;49.00;;;;;;5016341;28;20060;-71
2022/04/23 13:06:02;;;;;;;;;;;17.30;49.00;;;;;;5032265;28;20470;-71
2022/04/23 13:11:26;;;;;;;;;;;17.40;49.90;;;;;;5031685;28;20411;-72
2022/04/23 13:13:54;;;;;;;;;;;17.40;49.60;;;;;;5050360;28;19932;-70
2022/04/23 13:16:29;;;;;;;;;;;17.40;49.70;;;;;;5054132;28;19932;-70
2022/04/23 13:18:55;;;;;;;;;;;17.40;49.40;;;;;;5054413;28;20014;-71
2022/04/23 13:21:25;;;;;;;;;;;17.50;48.80;;;;;;5054421;28;19932;-73
2022/04/23 13:23:51;;;;;;;;;;;17.50;48.90;;;;;;5053335;28;19925;-70
2022/04/23 13:26:17;;;;;;;;;;;17.50;48.10;;;;;;5054183;28;19924;-74
2022/04/23 13:28:46;;;;;;;;;;;17.50;48.30;;;;;;5086760;28;20269;-71
2022/04/23 13:31:14;;;;;;;;;;;17.50;47.90;;;;;;5053985;28;19925;-72
2022/04/23 13:33:40;;;;;;;;;;;17.50;46.30;;;;;;5054217;28;19931;-72
2022/04/23 13:36:06;;;;;;;;;;;17.50;48.40;;;;;;5053870;28;19925;-71
2022/04/23 13:38:32;;;;;;;;;;;17.50;48.80;;;;;;5053987;28;20015;-70
2022/04/23 13:41:16;;;;;;;;;;;17.50;48.60;;;;;;5053811;28;19976;-71
2022/04/23 13:43:43;;;;;;;;;;;17.50;47.80;;;;;;5052849;28;19972;-70
2022/04/23 13:46:09;;;;;;;;;;;17.50;45.90;;;;;;5054056;28;20336;-71
2022/04/23 13:48:35;;;;;;;;;;;17.60;46.40;;;;;;5052954;28;19925;-72
2022/04/23 13:51:01;;;;;;;;;;;17.60;47.20;;;;;;5053777;28;19986;-71
2022/04/23 13:53:27;;;;;;;;;;;17.70;47.00;;;;;;5053598;28;19924;-70
2022/04/23 13:55:52;;;;;;;;;;;17.70;48.60;;;;;;5053408;28;20283;-71
2022/04/23 13:58:18;;;;;;;;;;;17.80;46.20;;;;;;5053810;28;19932;-73
2022/04/23 14:00:43;;;;;;;;;;;17.80;47.00;;;;;;5053740;28;20330;-71
2022/04/23 14:11:21;;;;;;;;;;;17.80;47.50;;;;;;5053734;28;19932;-73
2022/04/23 14:13:47;;;;;;;;;;;17.90;47.70;;;;;;5053660;28;19925;-70
2022/04/23 14:16:13;;;;;;;;;;;18.00;48.60;;;;;;5052361;28;19929;-73
2022/04/23 14:18:39;;;;;;;;;;;18.00;47.90;;;;;;5052237;28;19929;-71
2022/04/23 14:21:04;;;;;;;;;;;18.10;46.30;;;;;;5053480;28;19969;-74
2022/04/23 14:23:30;;;;;;;;;;;18.10;47.70;;;;;;5054939;28;19998;-71
2022/04/23 14:25:56;;;;;;;;;;;18.10;46.50;;;;;;5057554;28;19928;-70
2022/04/23 14:28:21;;;;;;;;;;;18.20;45.60;;;;;;5089916;28;20380;-71
2022/04/23 14:30:47;;;;;;;;;;;18.10;45.40;;;;;;5057717;28;19925;-71
2022/04/23 14:33:12;;;;;;;;;;;18.00;44.60;;;;;;5056023;28;19925;-72
2022/04/23 14:35:38;;;;;;;;;;;18.10;45.50;;;;;;5057342;28;20010;-70
2022/04/23 14:38:04;;;;;;;;;;;18.00;45.50;;;;;;5057363;28;19925;-71
2022/04/23 14:40:30;;;;;;;;;;;18.30;45.70;;;;;;5057252;28;19931;-71
2022/04/23 14:42:56;;;;;;;;;;;18.40;45.60;;;;;;5057201;28;19924;-71
2022/04/23 14:45:22;;;;;;;;;;;18.40;47.20;;;;;;5056465;28;19932;-72
2022/04/23 14:47:50;;;;;;;;;;;18.50;47.30;;;;;;5056156;28;19925;-73
2022/04/23 14:50:16;;;;;;;;;;;18.60;47.30;;;;;;5057165;28;19925;-71
2022/04/23 14:55:29;;;;;;;;;;;18.60;45.70;;;;;;5089787;28;20017;-71
2022/04/23 14:57:55;;;;;;;;;;;18.70;44.00;;;;;;5056787;28;19968;-72
2022/04/23 15:00:20;;;;;;;;;;;18.70;46.60;;;;;;5055579;28;19929;-70
2022/04/23 15:02:46;;;;;;;;;;;18.80;45.60;;;;;;5056981;28;19925;-73
2022/04/23 15:05:11;;;;;;;;;;;18.80;44.20;;;;;;5055873;28;20398;-73
2022/04/23 15:07:39;;;;;;;;;;;18.90;44.50;;;;;;5055616;28;19931;-71